Data for 10/17/2010

Time Sea-Level Adjusted Pressure Absolute Pressure Temperature Relative Humidity Dew Point   
(mb) (inHg) (mb) (inHg) (C) (F) (%) (C) (F)
00:05 1020 30.12 849 25.07 8.3 47 80 5.1 41.2
00:10 1020 30.12 849 25.07 8.2 46.7 83 5.5 42
00:15 1020 30.12 849 25.07 8.2 46.7 78 4.5 40.2
00:20 1020 30.12 849 25.07 9 48.2 71 4 39.3
00:25 1020 30.12 849 25.07 9.3 48.7 75 5.2 41.3
00:30 1020 30.12 849 25.07 9 48.1 70 3.9 39
00:35 1019 30.09 849 25.07 9.4 48.8 70 4.1 39.4
00:40 1019 30.09 848 25.04 9.4 48.9 71 4.4 39.9
00:45 1019 30.09 848 25.04 9.2 48.5 75 5 41
00:50 1019 30.09 848 25.04 8.8 47.8 78 5.2 41.3
00:55 1019 30.09 848 25.04 8.5 47.2 78 4.8 40.7
01:00 1019 30.09 848 25.04 8.4 47.1 79 4.9 40.8
01:05 1019 30.09 848 25.04 8.3 47 79 4.9 40.9
01:10 1019 30.09 848 25.04 8.3 46.9 80 5.1 41.3
01:15 1019 30.09 848 25.04 8.1 46.6 81 5 41
01:20 1019 30.09 848 25.04 7.9 46.3 82 5 41
01:25 1019 30.09 848 25.04 7.9 46.1 81 4.9 40.8
01:30 1019 30.09 848 25.04 7.9 46.2 81 4.9 40.9
01:35 1019 30.09 848 25.04 7.9 46.3 81 4.8 40.7
01:40 1019 30.09 848 25.04 8 46.4 78 4.5 40.1
01:45 1019 30.09 848 25.04 8.3 46.9 77 4.4 39.9
01:50 1019 30.09 848 25.04 8.4 47.1 76 4.5 40.1
01:55 1019 30.09 848 25.04 8.4 47.1 77 4.5 40.1
02:00 1019 30.09 848 25.04 8.4 47.2 74 4.1 39.3
02:05 1019 30.09 848 25.04 8.7 47.6 73 4.2 39.5
02:10 1019 30.09 848 25.04 8.7 47.6 74 4.3 39.7
02:15 1018 30.06 848 25.04 8.6 47.5 75 4.5 40.1
02:20 1019 30.09 848 25.04 8.5 47.2 76 4.5 40.1
02:25 1019 30.09 848 25.04 8.3 46.9 77 4.5 40.2
02:30 1019 30.09 848 25.04 8.1 46.6 78 4.5 40.1
02:35 1019 30.09 848 25.04 8 46.3 79 4.6 40.2
02:40 1019 30.09 848 25.04 7.9 46.2 80 4.6 40.3
02:45 1019 30.09 848 25.04 7.8 46.1 81 4.7 40.5
02:50 1019 30.09 848 25.04 7.8 46 81 4.7 40.4
02:55 1019 30.09 848 25.04 7.8 46 80 4.6 40.2
03:00 1019 30.09 848 25.04 7.8 46 81 4.7 40.5
03:05 1019 30.09 848 25.04 7.8 46 81 4.7 40.4
03:10 1019 30.09 848 25.04 7.7 45.8 81 4.7 40.4
03:15 1019 30.09 848 25.04 7.6 45.8 81 4.7 40.4
03:20 1019 30.09 848 25.04 7.6 45.8 82 4.8 40.6
03:25 1019 30.09 848 25.04 7.6 45.6 82 4.6 40.3
03:30 1019 30.09 848 25.04 7.4 45.4 83 4.8 40.6
03:35 1019 30.09 848 25.04 7.3 45.1 83 4.7 40.4
03:40 1019 30.09 848 25.04 7.2 44.9 84 4.6 40.3
03:45 1019 30.09 848 25.04 7.2 45 83 4.6 40.3
03:50 1019 30.09 848 25.04 7.3 45.1 84 4.8 40.6
03:55 1019 30.09 848 25.04 7.3 45.1 85 4.9 40.9
04:00 1019 30.09 848 25.04 7.2 45 85 4.9 40.9
04:05 1019 30.09 848 25.04 7.2 44.9 86 4.9 40.9
04:10 1019 30.09 848 25.04 7.1 44.7 87 5 41
04:15 1019 30.09 848 25.04 7 44.6 87 5 40.9
04:20 1019 30.09 848 25.04 6.9 44.5 87 4.9 40.9
04:25 1019 30.09 848 25.04 6.8 44.3 88 5 41
04:30 1019 30.09 848 25.04 6.8 44.2 88 5 40.9
04:35 1019 30.09 848 25.04 6.7 44.1 88 4.9 40.8
04:40 1019 30.09 848 25.04 6.8 44.3 88 4.9 40.9
04:45 1019 30.09 848 25.04 6.8 44.2 87 4.8 40.6
04:50 1019 30.09 848 25.04 6.9 44.3 86 4.7 40.4
04:55 1019 30.09 848 25.04 6.9 44.3 86 4.6 40.3
05:00 1019 30.09 848 25.04 6.9 44.3 86 4.6 40.3
05:05 1019 30.09 848 25.04 6.8 44.3 85 4.5 40
05:10 1019 30.09 848 25.04 6.9 44.3 85 4.5 40
05:15 1019 30.09 848 25.04 6.8 44.3 84 4.4 39.9
05:20 1019 30.09 848 25.04 6.9 44.4 84 4.4 40
05:25 1019 30.09 848 25.04 6.9 44.5 85 4.6 40.2
05:30 1019 30.09 848 25.04 6.9 44.5 84 4.4 40
05:35 1019 30.09 848 25.04 6.9 44.4 84 4.4 40
05:40 1019 30.09 848 25.04 6.8 44.2 84 4.4 39.8
05:45 1019 30.09 848 25.04 6.8 44.2 84 4.2 39.6
05:50 1019 30.09 848 25.04 6.8 44.3 84 4.3 39.8
05:55 1019 30.09 848 25.04 6.7 44.1 86 4.5 40.1
06:00 1019 30.09 848 25.04 6.5 43.7 86 4.3 39.7
06:05 1019 30.09 848 25.04 6.5 43.7 86 4.4 39.9
06:10 1019 30.09 848 25.04 6.4 43.6 87 4.4 39.9
06:15 1019 30.09 848 25.04 6.5 43.7 86 4.3 39.7
06:20 1019 30.09 848 25.04 6.5 43.8 86 4.4 40
06:25 1019 30.09 848 25.04 6.5 43.8 86 4.4 39.9
06:30 1019 30.09 848 25.04 6.6 43.9 86 4.5 40
06:35 1019 30.09 848 25.04 6.5 43.7 87 4.5 40
06:40 1019 30.09 848 25.04 6.5 43.7 87 4.4 40
06:45 1019 30.09 848 25.04 6.6 43.9 86 4.5 40.1
06:50 1019 30.09 848 25.04 6.5 43.7 87 4.5 40.1
06:55 1019 30.09 848 25.04 6.4 43.6 87 4.5 40.1
07:00 1019 30.09 848 25.04 6.3 43.4 88 4.5 40.1
07:05 1019 30.09 848 25.04 6.3 43.3 88 4.4 40
07:10 1019 30.09 848 25.04 6.3 43.4 88 4.4 40
07:15 1019 30.09 848 25.04 6.2 43.2 89 4.5 40.2
07:20 1019 30.09 848 25.04 6.1 43 89 4.5 40
07:25 1019 30.09 848 25.04 6.1 42.9 88 4.3 39.7
07:30 1019 30.09 848 25.04 6.2 43.2 87 4.3 39.8
07:35 1019 30.09 848 25.04 6.3 43.3 87 4.4 39.8
07:40 1019 30.09 848 25.04 6.2 43.2 88 4.3 39.8
07:45 1019 30.09 848 25.04 6.3 43.4 87 4.3 39.8
07:50 1019 30.09 848 25.04 6.2 43.1 88 4.3 39.8
07:55 1019 30.09 849 25.07 6.1 43 88 4.2 39.6
08:00 1020 30.12 849 25.07 6.3 43.4 85 4 39.3
08:05 1020 30.12 849 25.07 6.7 44.1 85 4.4 39.9
08:10 1020 30.12 849 25.07 6.7 44.1 85 4.4 40
08:15 1020 30.12 849 25.07 6.6 43.9 86 4.5 40.1
08:20 1020 30.12 849 25.07 6.6 43.9 86 4.5 40.1
08:25 1020 30.12 849 25.07 6.5 43.8 87 4.6 40.2
08:30 1020 30.12 850 25.1 6.4 43.5 88 4.6 40.3
08:35 1020 30.12 850 25.1 6.4 43.6 88 4.6 40.3
08:40 1020 30.12 850 25.1 6.4 43.4 89 4.7 40.5
08:45 1020 30.12 850 25.1 6.3 43.3 90 4.7 40.4
08:50 1020 30.12 850 25.1 6.2 43.1 90 4.6 40.3
08:55 1020 30.12 850 25.1 6.3 43.4 90 4.8 40.6
09:00 1021 30.15 850 25.1 6.3 43.3 90 4.8 40.7
09:05 1021 30.15 850 25.1 6.3 43.4 90 4.8 40.7
09:10 1021 30.15 850 25.1 6.4 43.4 90 4.9 40.7
09:15 1021 30.15 850 25.1 6.4 43.5 90 4.8 40.7
09:20 1021 30.15 850 25.1 6.6 43.9 88 4.8 40.6
09:25 1021 30.15 850 25.1 6.7 44.1 89 5.1 41.2
09:30 1020 30.12 850 25.1 6.7 44 88 4.8 40.6
09:35 1020 30.12 849 25.07 7 44.5 86 4.8 40.6
09:40 1020 30.12 849 25.07 7 44.6 85 4.6 40.3
09:45 1020 30.12 849 25.07 7.2 45 86 5 41.1
09:50 1020 30.12 849 25.07 7.4 45.3 83 4.7 40.5
09:55 1020 30.12 850 25.1 7.7 45.8 84 5.2 41.4
10:00 1020 30.12 850 25.1 7.5 45.6 88 5.6 42.1
10:05 1020 30.12 850 25.1 7.4 45.3 86 5.2 41.3
10:10 1020 30.12 850 25.1 7.7 45.9 81 4.8 40.6
10:15 1020 30.12 850 25.1 7.8 46.1 85 5.5 41.9
10:20 1020 30.12 850 25.1 7.8 46 85 5.5 41.8
10:25 1020 30.12 850 25.1 8 46.5 85 5.7 42.3
10:30 1021 30.15 850 25.1 8.5 47.3 84 6 42.8
10:35 1021 30.15 850 25.1 8.8 47.8 82 5.8 42.5
10:40 1021 30.15 850 25.1 8.9 48.1 79 5.4 41.8
10:45 1021 30.15 850 25.1 9.2 48.5 77 5.4 41.7
10:50 1021 30.15 850 25.1 9.6 49.3 75 5.4 41.7
10:55 1021 30.15 850 25.1 9.6 49.2 78 5.9 42.5
11:00 1021 30.15 850 25.1 9.9 49.8 73 5.3 41.5
11:05 1021 30.15 850 25.1 10.2 50.3 72 5.4 41.6
11:10 1021 30.15 850 25.1 10.9 51.6 70 5.6 42
11:15 1021 30.15 850 25.1 11.3 52.3 68 5.6 42
11:20 1021 30.15 850 25.1 11.2 52.2 67 5.4 41.8
11:25 1021 30.15 850 25.1 10.9 51.6 70 5.7 42.3
11:30 1021 30.15 850 25.1 10.9 51.6 68 5.2 41.4
11:35 1021 30.15 850 25.1 10.9 51.6 67 5 41
11:40 1021 30.15 850 25.1 10.9 51.6 68 5.4 41.6
11:45 1021 30.15 850 25.1 11.2 52.2 65 5 41
11:50 1021 30.15 850 25.1 11.3 52.3 67 5.4 41.8
11:55 1021 30.15 850 25.1 11.3 52.3 67 5.4 41.7
12:00 1021 30.15 850 25.1 11.2 52.2 67 5.4 41.6
12:05 1021 30.15 850 25.1 11.1 52 69 5.7 42.2
12:10 1021 30.15 850 25.1 11.1 51.9 70 5.9 42.5
12:15 1021 30.15 850 25.1 11.1 51.9 70 5.8 42.4
12:20 1021 30.15 851 25.13 10.7 51.3 74 6.2 43.2
12:25 1021 30.15 850 25.1 10.7 51.2 75 6.5 43.7
12:30 1021 30.15 850 25.1 10.5 50.8 74 6 42.8
12:35 1021 30.15 850 25.1 10.1 50.2 74 5.8 42.4
12:40 1021 30.15 850 25.1 10 50 71 5 40.9
12:45 1021 30.15 850 25.1 10.3 50.6 70 5.1 41.1
12:50 1021 30.15 850 25.1 10.6 51 67 4.8 40.6
12:55 1021 30.15 850 25.1 10.8 51.4 65 4.5 40.1
13:00 1021 30.15 850 25.1 10.8 51.4 67 5 41
13:05 1021 30.15 850 25.1 10.4 50.7 69 5 41
13:10 1021 30.15 850 25.1 10.2 50.3 69 4.7 40.4
13:15 1021 30.15 850 25.1 10.3 50.6 67 4.5 40.1
13:20 1021 30.15 850 25.1 10.5 50.9 67 4.7 40.4
13:25 1021 30.15 850 25.1 10.8 51.4 64 4.2 39.6
13:30 1021 30.15 850 25.1 11 51.8 63 4.4 39.8
13:35 1021 30.15 850 25.1 10.8 51.5 62 4 39.1
13:40 1021 30.15 850 25.1 11 51.7 62 4 39.2
13:45 1021 30.15 850 25.1 11.5 52.7 59 3.9 39
13:50 1021 30.15 850 25.1 11.4 52.6 60 4.1 39.4
13:55 1021 30.15 850 25.1 11.8 53.2 57 3.7 38.7
14:00 1021 30.15 850 25.1 12.4 54.4 58 4.5 40.1
14:05 1021 30.15 850 25.1 12.3 54.1 60 4.9 40.8
14:10 1021 30.15 850 25.1 12.7 54.8 57 4.4 39.9
14:15 1021 30.15 850 25.1 13 55.5 53 3.8 38.8
14:20 1021 30.15 850 25.1 13.6 56.4 51 3.8 38.8
14:25 1020 30.12 850 25.1 13.9 57 52 4.3 39.7
14:30 1020 30.12 850 25.1 13.2 55.7 54 4.1 39.3
14:35 1020 30.12 850 25.1 13.1 55.6 55 4.3 39.8
14:40 1020 30.12 850 25.1 13.3 55.9 53 4 39.2
14:45 1020 30.12 850 25.1 13.9 57.1 48 3.2 37.7
14:50 1020 30.12 850 25.1 14.6 58.3 46 3.3 38
14:55 1020 30.12 850 25.1 15 58.9 41 1.8 35.3
15:00 1020 30.12 849 25.07 14.3 57.7 43 1.8 35.3
15:05 1020 30.12 849 25.07 14.4 57.9 41 1.5 34.8
15:10 1020 30.12 849 25.07 14.2 57.5 44 2 35.6
15:15 1020 30.12 850 25.1 14 57.2 44 1.9 35.4
15:20 1020 30.12 850 25.1 14.6 58.3 40 1.3 34.4
15:25 1020 30.12 849 25.07 14.7 58.5 40 1.4 34.6
15:30 1020 30.12 849 25.07 14.7 58.5 42 2 35.6
15:35 1020 30.12 849 25.07 14.7 58.4 42 1.9 35.4
15:40 1020 30.12 849 25.07 14.3 57.7 44 2.4 36.2
15:45 1020 30.12 849 25.07 13.8 56.8 45 2.2 36
15:50 1020 30.12 849 25.07 14.5 58 44 2.5 36.6
15:55 1020 30.12 849 25.07 15.3 59.5 42 2.4 36.3
16:00 1020 30.12 849 25.07 15.3 59.6 39 1.4 34.5
16:05 1020 30.12 849 25.07 15.2 59.3 38 1.2 34.2
16:10 1020 30.12 849 25.07 15.1 59.1 38 1 33.8
16:15 1020 30.12 849 25.07 15.1 59.2 37 0.6 33.2
16:20 1020 30.12 849 25.07 15.3 59.6 34 -0.4 31.2
16:25 1020 30.12 849 25.07 15.1 59.2 37 0.4 32.8
16:30 1020 30.12 849 25.07 14.9 58.8 37 0.2 32.4
16:35 1020 30.12 849 25.07 15 59 37 0.5 32.9
16:40 1020 30.12 849 25.07 15.2 59.3 37 0.8 33.5
16:45 1020 30.12 849 25.07 15.2 59.3 35 -0 32
16:50 1020 30.12 849 25.07 15.2 59.3 37 0.5 32.9
16:55 1020 30.12 849 25.07 15.3 59.5 35 -0 31.9
17:00 1020 30.12 849 25.07 15.2 59.3 36 0.3 32.5
17:05 1020 30.12 849 25.07 15.4 59.7 36 0.4 32.7
17:10 1020 30.12 849 25.07 15.2 59.4 35 0 32
17:15 1020 30.12 849 25.07 14.9 58.8 37 0.3 32.5
17:20 1020 30.12 849 25.07 15 58.9 37 0.5 33
17:25 1020 30.12 849 25.07 14.6 58.2 39 0.7 33.2
17:30 1020 30.12 849 25.07 14.4 57.9 38 0.2 32.4
17:35 1020 30.12 849 25.07 14.7 58.4 37 0.3 32.5
17:40 1020 30.12 849 25.07 14.7 58.5 37 0.4 32.8
17:45 1020 30.12 849 25.07 14.3 57.7 38 0.4 32.7
17:50 1020 30.12 849 25.07 13.6 56.5 41 0.5 33
17:55 1020 30.12 849 25.07 13.3 55.9 41 0.3 32.6
18:00 1020 30.12 849 25.07 13.2 55.7 43 0.8 33.4
18:05 1020 30.12 849 25.07 13 55.4 42 0.6 33
18:10 1020 30.12 849 25.07 12.9 55.3 43 0.7 33.2
18:15 1020 30.12 849 25.07 12.8 55 43 0.7 33.3
18:20 1020 30.12 849 25.07 12.6 54.7 44 0.6 33.1
18:25 1020 30.12 849 25.07 12.3 54.2 53 2.9 37.3
18:30 1020 30.12 849 25.07 11.7 53 55 3 37.4
18:35 1020 30.12 849 25.07 11 51.7 59 3.3 37.9
18:40 1020 30.12 849 25.07 10.4 50.7 62 3.5 38.3
18:45 1020 30.12 849 25.07 9.9 49.8 64 3.4 38.1
18:50 1020 30.12 849 25.07 9.5 49.1 66 3.5 38.3
18:55 1020 30.12 849 25.07 9.1 48.3 67 3.2 37.8
19:00 1020 30.12 850 25.1 8.9 48 68 3.3 37.9
19:05 1020 30.12 850 25.1 8.5 47.4 69 3.2 37.7
19:10 1020 30.12 850 25.1 8.2 46.8 70 3 37.5
19:15 1020 30.12 850 25.1 8 46.4 70 2.9 37.2
19:20 1021 30.15 850 25.1 7.9 46.2 70 2.8 37.1
19:25 1021 30.15 850 25.1 7.7 45.8 71 2.8 37.1
19:30 1021 30.15 850 25.1 7.3 45.1 72 2.6 36.6
19:35 1021 30.15 850 25.1 6.9 44.4 71 2 35.6
19:40 1021 30.15 850 25.1 6.9 44.5 71 2 35.5
19:45 1021 30.15 850 25.1 7.1 44.8 68 1.6 35
19:50 1021 30.15 850 25.1 7.1 44.9 68 1.7 35.1
19:55 1021 30.15 850 25.1 7.1 44.8 67 1.4 34.5
20:00 1021 30.15 850 25.1 7 44.5 69 1.6 34.9
20:05 1021 30.15 850 25.1 6.8 44.3 69 1.6 34.8
20:10 1021 30.15 850 25.1 6.7 44 70 1.7 35
20:15 1021 30.15 850 25.1 6.6 43.8 70 1.6 34.8
20:20 1021 30.15 850 25.1 6.5 43.7 71 1.6 34.9
20:25 1021 30.15 850 25.1 6.4 43.5 72 1.7 35
20:30 1021 30.15 850 25.1 6.3 43.3 71 1.5 34.7
20:35 1021 30.15 851 25.13 6.2 43.2 72 1.6 34.8
20:40 1021 30.15 851 25.13 6.1 42.9 71 1.2 34.2
20:45 1021 30.15 851 25.13 6.2 43.2 71 1.3 34.3
20:50 1021 30.15 851 25.13 6.1 43 71 1.3 34.4
20:55 1021 30.15 851 25.13 6.1 42.9 71 1.2 34.2
21:00 1021 30.15 851 25.13 6 42.7 71 1.2 34.1
21:05 1021 30.15 851 25.13 6 42.7 71 1.1 34
21:10 1021 30.15 851 25.13 6 42.8 71 1.1 33.9
21:15 1022 30.18 851 25.13 5.9 42.6 71 1 33.7
21:20 1022 30.18 851 25.13 5.8 42.4 72 1.1 34
21:25 1022 30.18 851 25.13 5.5 41.9 71 0.7 33.2
21:30 1022 30.18 851 25.13 5.9 42.6 68 0.5 32.8
21:35 1022 30.18 851 25.13 6.2 43.2 67 0.5 32.9
21:40 1022 30.18 851 25.13 6.2 43.2 68 0.7 33.3
21:45 1022 30.18 851 25.13 5.8 42.4 72 1.2 34.2
21:50 1022 30.18 851 25.13 5.5 41.9 73 1 33.9
21:55 1022 30.18 851 25.13 5.2 41.4 75 1.2 34.1
22:00 1022 30.18 851 25.13 4.9 40.8 76 1.1 33.9
22:05 1022 30.18 851 25.13 4.7 40.4 77 1 33.9
22:10 1022 30.18 851 25.13 4.6 40.3 76 0.8 33.4
22:15 1022 30.18 851 25.13 4.5 40.1 77 0.9 33.6
22:20 1022 30.18 851 25.13 4.2 39.6 79 0.8 33.5
22:25 1022 30.18 851 25.13 4.6 40.3 75 0.6 33.1
22:30 1022 30.18 851 25.13 5.1 41.2 70 0.1 32.1
22:35 1022 30.18 851 25.13 5.9 42.6 68 0.4 32.7
22:40 1022 30.18 851 25.13 5.5 42 69 0.3 32.6
22:45 1022 30.18 851 25.13 5.5 41.8 69 0.2 32.3
22:50 1022 30.18 851 25.13 5.4 41.6 68 0 32
22:55 1022 30.18 851 25.13 5.3 41.6 67 -0.2 31.6
23:00 1022 30.18 851 25.13 5.3 41.6 69 0 32.1
23:05 1022 30.18 851 25.13 5.2 41.3 67 -0.4 31.2
23:10 1022 30.18 851 25.13 5.5 41.9 65 -0.5 31.1
23:15 1022 30.18 851 25.13 5.8 42.5 66 -0 32
23:20 1022 30.18 851 25.13 5.6 42 67 0 32
23:25 1022 30.18 851 25.13 5.4 41.8 67 -0.3 31.5
23:30 1022 30.18 851 25.13 5.3 41.5 67 -0.3 31.4
23:35 1022 30.18 851 25.13 5.2 41.3 67 -0.4 31.2
23:40 1022 30.18 851 25.13 5.4 41.7 67 -0.3 31.5
23:45 1022 30.18 851 25.13 5.3 41.5 69 -0 31.9
23:50 1022 30.18 851 25.13 5.2 41.3 68 -0.1 31.7
23:55 1022 30.18 851 25.13 5.1 41.1 68 -0.2 31.6
24:00 1022 30.18 851 25.13 4.8 40.7 70 -0.1 31.8